Terminal Aerodrome Forecast
Issued by NWS

Home | Current Version | Previous Version | Text Only | Print | Product List | Glossary On
Versions: 1 2 3 4 5 6 7 8 9 10 11 12 13 14 15 16 17 18 19 20 21
000
FTUS44 KLZK 240500 RRA
TAFHRO
TAF
KHRO 240549Z 2406/2506 32005KT 1SM BR VV002
      TEMPO 2406/2410 1/2SM FG
     FM241300 08005KT P6SM SKC
     FM241900 10005KT P6SM SKC=

USA.gov is the U.S. government's official web portal to all federal, state and local government web resources and services.